createdAt,value
2023-08-08T10:06:10.421Z,23.80
2023-08-08T10:08:37.122Z,24.30
2023-08-08T10:11:05.860Z,24.30
2023-08-08T10:13:32.513Z,24.30
2023-08-08T10:16:04.846Z,24.80
2023-08-08T10:18:31.560Z,24.30
2023-08-08T10:20:58.785Z,25.10
2023-08-08T10:23:25.475Z,24.50
2023-08-08T10:25:53.524Z,24.30
2023-08-08T10:28:27.112Z,24.20
2023-08-08T10:30:58.368Z,24.50
2023-08-08T10:33:26.133Z,25.00
2023-08-08T10:35:58.651Z,25.20
2023-08-08T10:38:25.736Z,25.20
2023-08-08T10:40:58.944Z,25.30
2023-08-08T10:43:27.027Z,25.70
2023-08-08T10:45:59.984Z,26.10
2023-08-08T10:48:34.996Z,25.20
2023-08-08T10:51:01.902Z,25.60
2023-08-08T10:53:29.094Z,25.50
2023-08-08T10:56:14.564Z,25.00
2023-08-08T10:58:42.399Z,24.40
2023-08-08T11:01:10.213Z,23.80
2023-08-08T11:03:37.886Z,23.70
2023-08-08T11:06:09.344Z,23.20
2023-08-08T11:08:37.290Z,23.20
2023-08-08T11:11:04.451Z,22.70
2023-08-08T11:13:31.126Z,22.90
2023-08-08T11:15:57.998Z,22.80
2023-08-08T11:18:26.231Z,22.80
2023-08-08T11:20:55.607Z,23.00
2023-08-08T11:23:28.955Z,23.40
2023-08-08T11:28:25.259Z,24.60
2023-08-08T11:30:51.911Z,24.70
2023-08-08T11:33:19.555Z,25.00
2023-08-08T11:35:50.354Z,24.00
2023-08-08T11:38:17.644Z,24.30
2023-08-08T11:40:44.446Z,24.60
2023-08-08T11:43:12.810Z,24.70
2023-08-08T11:45:39.511Z,25.90
2023-08-08T11:48:06.401Z,26.60
2023-08-08T11:50:33.069Z,27.70
2023-08-08T11:53:00.511Z,28.30
2023-08-08T11:55:30.546Z,29.00
2023-08-08T11:58:01.320Z,28.20
2023-08-08T12:00:30.140Z,27.00
2023-08-08T12:02:57.047Z,27.50
2023-08-08T12:05:23.954Z,27.90
2023-08-08T12:07:51.256Z,28.60
2023-08-08T12:10:19.682Z,27.90
2023-08-08T12:12:46.738Z,28.40
2023-08-08T12:15:16.453Z,28.50
2023-08-08T12:17:43.792Z,28.50
2023-08-08T12:20:11.162Z,27.90
2023-08-08T12:22:38.084Z,27.40
2023-08-08T12:25:05.210Z,27.50
2023-08-08T12:27:31.957Z,27.80
2023-08-08T12:29:59.162Z,27.60
2023-08-08T12:32:27.983Z,27.70
2023-08-08T12:34:54.689Z,28.70
2023-08-08T12:37:21.330Z,28.90
2023-08-08T12:39:47.952Z,28.90
2023-08-08T12:42:14.681Z,28.30
2023-08-08T12:44:41.365Z,28.40
2023-08-08T12:47:07.991Z,28.90
2023-08-08T12:49:34.603Z,29.20
2023-08-08T12:52:01.258Z,28.60
2023-08-08T12:54:27.865Z,27.60
2023-08-08T12:56:54.481Z,27.80
2023-08-08T12:59:21.544Z,28.80
2023-08-08T13:01:48.612Z,29.80
2023-08-08T13:06:45.130Z,30.10
2023-08-08T13:09:11.804Z,28.60
2023-08-08T13:11:38.451Z,29.10
2023-08-08T13:14:05.062Z,28.00
2023-08-08T13:16:31.825Z,27.20
2023-08-08T13:18:58.488Z,28.30
2023-08-08T13:21:25.104Z,28.40
2023-08-08T13:23:51.705Z,29.60
2023-08-08T13:26:18.817Z,28.70
2023-08-08T13:28:45.511Z,29.10
2023-08-08T13:31:12.262Z,29.20
2023-08-08T13:33:38.947Z,29.80
2023-08-08T13:36:05.818Z,29.10
2023-08-08T13:38:32.521Z,29.80
2023-08-08T13:41:01.153Z,29.60
2023-08-08T13:43:27.869Z,31.10
2023-08-08T13:45:54.730Z,30.00
2023-08-08T13:48:21.468Z,30.10
2023-08-08T13:50:48.101Z,30.40
2023-08-08T13:53:14.898Z,30.20
2023-08-08T13:55:42.224Z,28.50
2023-08-08T13:58:08.880Z,28.20
2023-08-08T14:00:35.515Z,27.90
2023-08-08T14:03:02.530Z,28.10
2023-08-08T14:05:29.913Z,28.80
2023-08-08T14:07:56.526Z,28.80
2023-08-08T14:10:23.127Z,29.30
2023-08-08T14:12:49.770Z,29.60
2023-08-08T14:15:16.428Z,29.20
2023-08-08T14:17:43.218Z,27.50
2023-08-08T14:20:10.849Z,28.30
2023-08-08T14:22:37.518Z,27.10
2023-08-08T14:25:05.148Z,26.10
2023-08-08T14:27:31.957Z,25.30
2023-08-08T14:29:58.840Z,24.30
2023-08-08T14:32:25.571Z,24.30
2023-08-08T14:34:52.274Z,25.50
2023-08-08T14:37:18.893Z,26.80
2023-08-08T14:39:45.510Z,27.90
2023-08-08T14:42:12.166Z,29.00
2023-08-08T14:44:38.853Z,30.10
2023-08-08T14:47:05.761Z,30.90
2023-08-08T14:49:32.881Z,30.30
2023-08-08T14:51:59.852Z,31.40
2023-08-08T14:54:26.643Z,30.30
2023-08-08T14:56:53.262Z,29.70
2023-08-08T14:59:20.221Z,30.80
2023-08-08T15:01:47.623Z,31.50
2023-08-08T15:04:14.396Z,31.10
2023-08-08T15:06:41.811Z,30.80
2023-08-08T15:09:08.615Z,31.20
2023-08-08T15:11:35.240Z,30.70
2023-08-08T15:14:01.881Z,30.80
2023-08-08T15:16:28.829Z,29.40
2023-08-08T15:18:55.576Z,30.50
2023-08-08T15:21:22.534Z,30.30
2023-08-08T15:23:49.208Z,30.00
2023-08-08T15:26:20.147Z,29.00
2023-08-08T15:28:47.739Z,28.30
2023-08-08T15:31:15.373Z,27.90
2023-08-08T15:33:42.704Z,25.80
2023-08-08T15:36:09.462Z,25.30
2023-08-08T15:38:36.094Z,25.20
2023-08-08T15:41:02.983Z,25.20
2023-08-08T15:43:30.066Z,25.00
2023-08-08T15:45:56.718Z,25.30
2023-08-08T15:48:23.334Z,25.10
2023-08-08T15:50:50.016Z,24.20
2023-08-08T15:53:16.619Z,23.80
2023-08-08T15:55:43.296Z,23.80
2023-08-08T15:58:10.060Z,23.80
2023-08-08T16:00:36.677Z,23.70
2023-08-08T16:03:03.471Z,23.40
2023-08-08T16:05:30.213Z,22.70
2023-08-08T16:07:56.852Z,22.90
2023-08-08T16:10:23.925Z,22.60
2023-08-08T16:12:50.868Z,22.70
2023-08-08T16:15:19.133Z,22.70
2023-08-08T16:17:46.549Z,22.30
2023-08-08T16:20:13.266Z,22.60
2023-08-08T16:22:39.976Z,22.20
2023-08-08T16:25:06.825Z,22.30
2023-08-08T16:27:33.475Z,22.40
2023-08-08T16:30:00.163Z,22.30
2023-08-08T16:32:26.811Z,22.00
2023-08-08T16:34:53.761Z,22.10
2023-08-08T16:37:20.445Z,22.00
2023-08-08T16:39:48.196Z,21.90
2023-08-08T16:42:16.386Z,21.80
2023-08-08T16:44:43.236Z,21.80
2023-08-08T16:47:10.185Z,21.50
2023-08-08T16:49:37.199Z,21.50
2023-08-08T16:52:04.376Z,21.70
2023-08-08T16:54:31.429Z,21.80
2023-08-08T16:56:58.045Z,21.60
2023-08-08T16:59:25.351Z,21.50
2023-08-08T17:01:52.034Z,21.50
2023-08-08T17:04:19.405Z,21.50
2023-08-08T17:06:46.078Z,21.40
2023-08-08T17:09:13.419Z,21.50
2023-08-08T17:11:40.066Z,21.40
2023-08-08T17:14:06.776Z,21.50
2023-08-08T17:16:33.513Z,21.60
2023-08-08T17:19:00.206Z,21.50
2023-08-08T17:21:26.840Z,21.50
2023-08-08T17:23:53.503Z,21.50
2023-08-08T17:26:20.126Z,21.50
2023-08-08T17:28:48.392Z,21.30
2023-08-08T17:31:15.113Z,21.10
2023-08-08T17:33:41.893Z,21.00
2023-08-08T17:36:08.571Z,21.00
2023-08-08T17:38:35.222Z,20.80
2023-08-08T17:41:01.938Z,20.60
2023-08-08T17:43:28.663Z,20.70
2023-08-08T17:45:56.908Z,20.60
2023-08-08T17:48:23.588Z,20.70
2023-08-08T17:50:50.260Z,20.70
2023-08-08T17:53:16.872Z,20.50
2023-08-08T17:55:43.584Z,20.50
2023-08-08T17:58:10.206Z,20.30
2023-08-08T18:00:37.449Z,20.20
2023-08-08T18:03:04.363Z,20.30
2023-08-08T18:05:31.390Z,20.10
2023-08-08T18:07:58.007Z,20.00
2023-08-08T18:10:24.666Z,19.90
2023-08-08T18:12:51.354Z,19.90
2023-08-08T18:15:17.957Z,19.70
2023-08-08T18:17:44.654Z,19.70
2023-08-08T18:20:12.846Z,19.70
2023-08-08T18:22:39.554Z,19.60
2023-08-08T18:25:06.371Z,19.20
2023-08-08T18:27:33.155Z,19.30
2023-08-08T18:30:00.285Z,19.20
2023-08-08T18:32:27.948Z,19.10
2023-08-08T18:34:54.832Z,19.10
2023-08-08T18:37:21.505Z,19.00
2023-08-08T18:39:48.156Z,18.90
2023-08-08T18:42:14.804Z,18.70
2023-08-08T18:44:41.489Z,18.90
2023-08-08T18:47:08.135Z,18.60
2023-08-08T18:49:34.763Z,18.30
2023-08-08T18:52:01.869Z,18.20
2023-08-08T18:54:28.973Z,18.20
2023-08-08T18:56:55.601Z,18.10
2023-08-08T18:59:23.040Z,18.00
2023-08-08T19:01:49.697Z,17.90
2023-08-08T19:04:16.396Z,17.90
2023-08-08T19:06:42.996Z,17.80
2023-08-08T19:09:09.777Z,17.70
2023-08-08T19:11:36.771Z,17.60
2023-08-08T19:14:03.819Z,17.60
2023-08-08T19:16:31.156Z,17.50
2023-08-08T19:18:57.832Z,17.60
2023-08-08T19:21:24.742Z,17.50
2023-08-08T19:23:51.413Z,17.40
2023-08-08T19:26:18.009Z,17.30
2023-08-08T19:28:46.067Z,17.30
2023-08-08T19:31:13.370Z,17.40
2023-08-08T19:33:43.424Z,17.30
2023-08-08T19:36:15.261Z,17.30
2023-08-08T19:38:41.953Z,17.30
2023-08-08T19:41:09.189Z,17.40
2023-08-08T19:43:35.886Z,17.30
2023-08-08T19:46:02.640Z,17.40
2023-08-08T19:48:29.396Z,17.50
2023-08-08T19:50:56.026Z,17.90
2023-08-08T19:53:22.639Z,18.20
2023-08-08T19:55:49.316Z,17.50
2023-08-08T19:58:17.826Z,17.60
2023-08-08T20:00:44.432Z,18.10
2023-08-08T20:03:11.187Z,17.60
2023-08-08T20:05:37.851Z,17.70
2023-08-08T20:08:04.470Z,17.70
2023-08-08T20:10:31.124Z,17.80
2023-08-08T20:12:57.732Z,17.70
2023-08-08T20:15:24.336Z,17.60
2023-08-08T20:17:51.091Z,17.50
2023-08-08T20:20:17.787Z,17.60
2023-08-08T20:22:44.465Z,17.60
2023-08-08T20:25:12.565Z,17.60
2023-08-08T20:27:39.225Z,17.50
2023-08-08T20:30:06.327Z,17.50
2023-08-08T20:32:32.975Z,17.50
2023-08-08T20:34:59.644Z,17.40
2023-08-08T20:37:26.281Z,17.30
2023-08-08T20:39:52.911Z,17.20
2023-08-08T20:42:19.628Z,17.10
2023-08-08T20:44:46.247Z,17.20
2023-08-08T20:47:12.872Z,16.90
2023-08-08T20:49:39.591Z,16.80
2023-08-08T20:52:06.197Z,16.70
2023-08-08T20:54:32.816Z,17.70
2023-08-08T20:57:00.057Z,17.30
2023-08-08T20:59:27.488Z,16.40
2023-08-08T21:01:55.028Z,16.40
2023-08-08T21:04:22.328Z,16.30
2023-08-08T21:06:48.991Z,16.20
2023-08-08T21:09:16.243Z,16.10
2023-08-08T21:11:42.882Z,16.10
2023-08-08T21:14:09.497Z,16.10
2023-08-08T21:16:36.115Z,16.80
2023-08-08T21:19:02.941Z,15.90
2023-08-08T21:21:29.550Z,15.90
2023-08-08T21:23:57.077Z,16.40
2023-08-08T21:26:34.001Z,16.10
2023-08-08T21:29:05.201Z,15.80
2023-08-08T21:31:31.821Z,15.70
2023-08-08T21:33:58.482Z,15.70
2023-08-08T21:36:25.158Z,15.70
2023-08-08T21:38:51.790Z,15.70
2023-08-08T21:41:18.579Z,15.80
2023-08-08T21:43:45.216Z,15.70
2023-08-08T21:46:12.647Z,15.80
2023-08-08T21:48:39.529Z,15.70
2023-08-08T21:51:06.301Z,15.70
2023-08-08T21:53:34.272Z,15.70
2023-08-08T21:56:02.296Z,15.70
2023-08-08T21:58:29.263Z,15.60
2023-08-08T22:00:55.951Z,15.50
2023-08-08T22:03:22.682Z,15.50
2023-08-08T22:05:49.370Z,15.40
2023-08-08T22:08:15.989Z,15.30
2023-08-08T22:10:42.701Z,16.10
2023-08-08T22:13:10.739Z,15.20
2023-08-08T22:15:38.113Z,15.20
2023-08-08T22:18:31.212Z,15.10
2023-08-08T22:20:57.933Z,15.00
2023-08-08T22:23:24.566Z,15.00
2023-08-08T22:25:51.445Z,14.80
2023-08-08T22:28:19.483Z,14.80
2023-08-08T22:30:47.114Z,14.70
2023-08-08T22:33:14.505Z,14.60
2023-08-08T22:35:41.168Z,14.50
2023-08-08T22:38:08.082Z,14.60
2023-08-08T22:40:34.738Z,14.50
2023-08-08T22:43:01.430Z,14.40
2023-08-08T22:45:31.101Z,14.30
2023-08-08T22:47:57.905Z,14.30
2023-08-08T22:50:24.858Z,15.00
2023-08-08T22:52:51.535Z,14.20
2023-08-08T22:55:18.426Z,14.20
2023-08-08T22:57:45.239Z,14.10
2023-08-08T23:00:13.570Z,14.10
2023-08-08T23:02:40.966Z,14.10
2023-08-08T23:05:08.039Z,14.10
2023-08-08T23:07:34.806Z,14.10
2023-08-08T23:10:01.466Z,14.20
2023-08-08T23:12:28.147Z,14.10
2023-08-08T23:14:54.791Z,14.10
2023-08-08T23:17:21.499Z,14.20
2023-08-08T23:19:48.269Z,14.20
2023-08-08T23:22:15.026Z,14.20
2023-08-08T23:24:41.793Z,14.20
2023-08-08T23:27:08.482Z,14.20
2023-08-08T23:29:35.092Z,14.20
2023-08-08T23:32:01.848Z,14.10
2023-08-08T23:34:28.503Z,14.10
2023-08-08T23:36:56.011Z,14.10
2023-08-08T23:39:23.522Z,14.20
2023-08-08T23:41:50.223Z,14.10
2023-08-08T23:44:16.858Z,14.10
2023-08-08T23:46:43.527Z,14.20
2023-08-08T23:49:10.169Z,15.10
2023-08-08T23:51:38.037Z,14.10
2023-08-08T23:54:05.239Z,14.00
2023-08-08T23:56:31.965Z,14.00
2023-08-08T23:58:58.613Z,14.00
